Knoxville, TN

3:13 PM EDT on August 25, 2016 (GMT -0400)
Duncans Glen | | Change Station

Elev 1049 ft 35.90 °N, 84.00 °W | Updated 273 days ago

Partly Cloudy
Partly Cloudy
89 °F
Feels Like 95 °F
N
5
Wind Variable Wind from NW
Gusts mph

Today
High -- | Low -- °F
--% Chance of Precip.
Yesterday
High -- | Low -- °F
Precip. -- in
Pressure 30.11 in
Visibility 10.0 miles
Clouds Scattered Clouds 4200 ft
Scattered Clouds 15000 ft
Mostly Cloudy 20000 ft
Heat Index 95 °F
Dew Point 70 °F
Humidity 53%
Rainfall in
Snow Depth Not available.
7:02 AM 8:12 PM
Last Quarter, 43% visible
METAR KTYS 251853Z 16004KT 10SM SCT042 SCT150 BKN200 32/21 A3014 RMK AO2 SLP194 CB DSNT W T03220206
Pressure 30.11 in
Visibility 10.0 miles
Clouds Scattered Clouds 4200 ft
Scattered Clouds 15000 ft
Mostly Cloudy 20000 ft
Heat Index 95 °F
Dew Point 70 °F
Humidity 53%
Rainfall in
Snow Depth Not available.
7:02 AM 8:12 PM
Last Quarter, 43% visible
METAR KTYS 251853Z 16004KT 10SM SCT042 SCT150 BKN200 32/21 A3014 RMK AO2 SLP194 CB DSNT W T03220206
A tropical disturbance pushing toward the Bahamas, is expected to develop into a tropical depression or storm, and will likely target Florida and the Gulf Coast this weekend into next week.

Right now, the disturbance remains a broad area of low pressure pushing through the Dominican Republic and Haiti, headed toward the southeast Bahamas. Rainfall totals over 3 inches (with locally higher amounts) are expected in HispaƱiola, particularly over elevated terrain.

10-Day Weather Forecast

Almanac

Astronomy

Aug. 25, 2016 Rise Set
Actual Time
Civil Twilight
Nautical Twilight
Astronomical Twilight
Moon
Length of Visible Light
Length of Day
Tomorrow will be .
, % of the Moon is Illuminated

Today's Extremes

State Highs State Lows

Community

WunderPhotos

Upload Photos

1,934,907 photos uploaded!

WunderBlog® & News

Nearby

Air Quality

  Air Quality AQ Index Pollutant
Not available.

Snow Depth

Station Depth Elevation

Earthquake Activity

City Distance Mag. Time & Date
Minimum magnitude displayed is 2.5.

Coastal Water Temperatures

Place Temperature

Stations

Nearby Weather Stations

Station Location Temp. Windchill Dew Point Humidity Wind Precip. Elev Updated Type
                   

Watches & Warnings

There are currently no watches in effect.